createdAt,value
2022-08-04T00:01:59.935Z,1.70
2022-08-04T00:04:39.958Z,1.90
2022-08-04T00:07:47.887Z,1.77
2022-08-04T00:10:20.416Z,2.05
2022-08-04T00:13:01.883Z,2.10
2022-08-04T00:15:31.307Z,1.80
2022-08-04T00:18:21.881Z,1.80
2022-08-04T00:20:51.172Z,2.00
2022-08-04T00:23:19.427Z,2.05
2022-08-04T00:25:53.904Z,1.77
2022-08-04T00:28:23.501Z,2.22
2022-08-04T00:30:52.939Z,1.90
2022-08-04T00:33:28.857Z,2.00
2022-08-04T00:35:57.429Z,2.20
2022-08-04T00:38:25.759Z,1.90
2022-08-04T00:41:08.868Z,1.85
2022-08-04T00:44:09.226Z,1.70
2022-08-04T00:47:01.911Z,2.10
2022-08-04T00:49:54.186Z,1.90
2022-08-04T00:52:47.064Z,2.17
2022-08-04T00:55:38.257Z,2.22
2022-08-04T00:58:29.927Z,1.90
2022-08-04T01:01:06.780Z,2.28
2022-08-04T01:04:03.908Z,2.00
2022-08-04T01:06:42.492Z,1.77
2022-08-04T01:09:25.879Z,2.20
2022-08-04T01:11:57.934Z,2.10
2022-08-04T01:14:51.239Z,1.83
2022-08-04T01:18:10.032Z,1.90
2022-08-04T01:21:13.899Z,2.08
2022-08-04T01:23:57.150Z,1.92
2022-08-04T01:26:58.170Z,1.90
2022-08-04T01:29:42.979Z,2.10
2022-08-04T01:32:38.938Z,1.70
2022-08-04T01:35:22.089Z,1.98
2022-08-04T01:38:18.296Z,2.10
2022-08-04T01:40:52.891Z,1.90
2022-08-04T01:43:27.915Z,1.95
2022-08-04T01:46:00.741Z,2.10
2022-08-04T01:48:35.932Z,2.08
2022-08-04T01:51:09.216Z,1.80
2022-08-04T01:53:47.937Z,1.80
2022-08-04T01:56:15.913Z,2.00
2022-08-04T01:58:43.407Z,2.05
2022-08-04T02:01:20.020Z,1.63
2022-08-04T02:04:20.777Z,2.00
2022-08-04T02:06:53.924Z,2.13
2022-08-04T02:09:34.293Z,2.08
2022-08-04T02:13:02.932Z,2.25
2022-08-04T02:16:02.957Z,1.90
2022-08-04T02:18:57.924Z,1.80
2022-08-04T02:21:42.723Z,1.90
2022-08-04T02:24:21.920Z,2.00
2022-08-04T02:26:53.262Z,1.95
2022-08-04T02:29:42.062Z,2.00
2022-08-04T02:32:22.170Z,1.67
2022-08-04T02:35:04.918Z,1.90
2022-08-04T02:37:33.846Z,1.63
2022-08-04T02:40:11.926Z,1.70
2022-08-04T02:42:39.584Z,1.80
2022-08-04T02:45:08.991Z,1.95
2022-08-04T02:48:25.196Z,1.80
2022-08-04T02:50:34.715Z,1.70
2022-08-04T02:53:10.908Z,1.83
2022-08-04T02:55:40.052Z,1.58
2022-08-04T02:58:27.922Z,2.00
2022-08-04T03:00:55.398Z,1.70
2022-08-04T03:03:44.924Z,1.48
2022-08-04T03:06:12.446Z,1.88
2022-08-04T03:09:14.932Z,1.60
2022-08-04T03:11:58.112Z,2.03
2022-08-04T03:15:00.936Z,1.60
2022-08-04T03:17:52.725Z,1.60
2022-08-04T03:20:53.912Z,2.08
2022-08-04T03:23:42.837Z,1.65
2022-08-04T03:26:28.982Z,1.80
2022-08-04T03:29:00.651Z,1.70
2022-08-04T03:32:07.982Z,1.75
2022-08-04T03:34:53.844Z,1.60
2022-08-04T03:38:04.950Z,1.60
2022-08-04T03:40:53.668Z,1.70
2022-08-04T03:44:12.979Z,1.77
2022-08-04T03:46:49.472Z,1.90
2022-08-04T03:49:50.918Z,1.58
2022-08-04T03:53:09.432Z,1.70
2022-08-04T03:56:04.910Z,1.90
2022-08-04T03:59:09.933Z,1.70
2022-08-04T04:02:14.956Z,1.88
2022-08-04T04:05:19.687Z,1.75
2022-08-04T04:08:32.022Z,1.70
2022-08-04T04:11:18.968Z,2.00
2022-08-04T04:14:01.951Z,1.65
2022-08-04T04:16:59.463Z,1.67
2022-08-04T04:19:58.542Z,1.80
2022-08-04T04:22:38.216Z,1.60
2022-08-04T04:25:47.964Z,1.65
2022-08-04T04:29:02.865Z,1.80
2022-08-04T04:32:03.954Z,1.63
2022-08-04T04:34:57.244Z,1.92
2022-08-04T04:37:53.022Z,1.70
2022-08-04T04:40:42.418Z,1.67
2022-08-04T04:43:53.977Z,1.58
2022-08-04T04:46:37.628Z,1.70
2022-08-04T04:49:57.012Z,1.70
2022-08-04T04:53:17.048Z,1.63
2022-08-04T04:56:03.976Z,1.75
2022-08-04T04:58:34.394Z,1.83
2022-08-04T05:01:44.125Z,1.90
2022-08-04T05:08:42.700Z,2.05
2022-08-04T05:11:50.662Z,1.80
2022-08-04T05:14:51.072Z,2.13
2022-08-04T05:17:44.027Z,1.90
2022-08-04T05:20:33.982Z,1.95
2022-08-04T05:23:16.360Z,2.20
2022-08-04T05:26:09.061Z,2.10
2022-08-04T05:28:43.239Z,1.70
2022-08-04T05:31:30.026Z,1.88
2022-08-04T05:34:12.784Z,1.70
2022-08-04T05:37:09.991Z,1.60
2022-08-04T05:39:46.401Z,1.70
2022-08-04T05:42:23.991Z,1.73
2022-08-04T05:44:51.840Z,2.00
2022-08-04T05:47:22.504Z,1.70
2022-08-04T05:50:01.839Z,1.83
2022-08-04T05:52:36.348Z,1.70
2022-08-04T05:55:12.005Z,1.80
2022-08-04T05:57:45.670Z,1.80
2022-08-04T06:00:40.206Z,1.70
2022-08-04T06:03:10.478Z,2.00
2022-08-04T06:05:46.018Z,1.75
2022-08-04T06:08:15.026Z,1.80
2022-08-04T06:10:44.774Z,2.08
2022-08-04T06:13:49.608Z,2.05
2022-08-04T06:16:26.709Z,1.80
2022-08-04T06:20:03.051Z,1.67
2022-08-04T06:22:13.509Z,1.90
2022-08-04T06:24:56.007Z,1.95
2022-08-04T06:27:25.104Z,2.10
2022-08-04T06:30:03.969Z,1.88
2022-08-04T06:32:47.590Z,1.70
2022-08-04T06:35:28.008Z,2.03
2022-08-04T06:38:00.774Z,2.00
2022-08-04T06:40:38.940Z,2.30
2022-08-04T06:43:08.890Z,2.05
2022-08-04T06:45:48.000Z,1.85
2022-08-04T06:48:17.425Z,1.80
2022-08-04T06:51:35.187Z,2.10
2022-08-04T06:53:45.066Z,1.85
2022-08-04T06:56:20.020Z,2.00
2022-08-04T06:58:50.129Z,2.00
2022-08-04T07:01:27.097Z,2.22
2022-08-04T07:03:57.324Z,2.05
2022-08-04T07:06:25.612Z,2.00
2022-08-04T07:09:03.073Z,2.08
2022-08-04T07:11:39.453Z,2.10
2022-08-04T07:14:22.033Z,2.22
2022-08-04T07:16:51.266Z,2.08
2022-08-04T07:19:32.053Z,2.25
2022-08-04T07:22:25.487Z,1.80
2022-08-04T07:25:12.386Z,1.98
2022-08-04T07:27:48.103Z,2.03
2022-08-04T07:30:32.114Z,1.95
2022-08-04T07:33:00.761Z,2.10
2022-08-04T07:36:05.458Z,2.08
2022-08-04T07:38:27.614Z,2.33
2022-08-04T07:40:56.657Z,2.22
2022-08-04T07:43:31.073Z,2.10
2022-08-04T07:45:59.048Z,2.22
2022-08-04T07:48:26.908Z,2.13
2022-08-04T07:51:02.103Z,2.10
2022-08-04T07:53:52.985Z,2.15
2022-08-04T07:56:29.066Z,2.22
2022-08-04T07:58:57.029Z,2.20
2022-08-04T08:01:25.878Z,2.53
2022-08-04T08:04:02.261Z,2.22
2022-08-04T08:06:33.326Z,2.10
2022-08-04T08:09:20.177Z,2.60
2022-08-04T08:12:35.371Z,2.50
2022-08-04T08:14:53.047Z,2.50
2022-08-04T08:17:21.308Z,2.63
2022-08-04T08:20:02.248Z,2.50
2022-08-04T08:22:31.670Z,2.63
2022-08-04T08:24:59.641Z,2.42
2022-08-04T08:27:34.117Z,2.20
2022-08-04T08:30:01.952Z,2.40
2022-08-04T08:32:31.577Z,2.75
2022-08-04T08:35:07.119Z,2.50
2022-08-04T08:37:49.725Z,2.20
2022-08-04T08:40:57.099Z,2.33
2022-08-04T08:44:05.206Z,2.45
2022-08-04T08:46:53.090Z,2.40
2022-08-04T08:50:03.005Z,2.30
2022-08-04T08:53:02.805Z,2.28
2022-08-04T08:55:57.038Z,2.65
2022-08-04T08:58:46.108Z,2.42
2022-08-04T09:01:36.990Z,2.40
2022-08-04T09:04:51.117Z,2.30
2022-08-04T09:07:33.203Z,2.03
2022-08-04T09:10:20.113Z,2.35
2022-08-04T09:13:08.644Z,2.25
2022-08-04T09:15:54.457Z,2.38
2022-08-04T09:18:37.243Z,2.40
2022-08-04T09:21:24.139Z,2.13
2022-08-04T09:24:35.128Z,2.22
2022-08-04T09:27:27.081Z,2.80
2022-08-04T09:30:07.667Z,2.30
2022-08-04T09:33:11.054Z,2.80
2022-08-04T09:35:57.230Z,2.25
2022-08-04T09:38:47.957Z,2.33
2022-08-04T09:41:49.293Z,2.70
2022-08-04T09:44:48.782Z,2.40
2022-08-04T09:47:41.290Z,2.55
2022-08-04T09:50:41.116Z,2.83
2022-08-04T09:53:46.094Z,2.25
2022-08-04T09:57:14.116Z,2.42
2022-08-04T10:00:04.440Z,2.50
2022-08-04T10:02:54.188Z,2.58
2022-08-04T10:05:26.129Z,2.22
2022-08-04T10:08:39.142Z,2.70
2022-08-04T10:11:28.734Z,2.58
2022-08-04T10:14:23.035Z,2.50
2022-08-04T10:17:32.917Z,2.60
2022-08-04T10:20:44.805Z,2.50
2022-08-04T10:23:55.235Z,2.63
2022-08-04T10:26:53.224Z,2.50
2022-08-04T10:29:45.871Z,2.70
2022-08-04T10:32:34.619Z,2.60
2022-08-04T10:35:13.639Z,2.67
2022-08-04T10:38:01.796Z,2.40
2022-08-04T10:40:57.721Z,2.92
2022-08-04T10:44:04.584Z,2.35
2022-08-04T10:46:37.532Z,2.50
2022-08-04T10:49:21.719Z,2.47
2022-08-04T10:52:01.967Z,2.67
2022-08-04T10:54:56.542Z,2.90
2022-08-04T10:57:36.274Z,2.45
2022-08-04T11:00:15.674Z,2.58
2022-08-04T11:03:08.981Z,2.50
2022-08-04T11:05:56.971Z,2.65
2022-08-04T11:08:35.720Z,2.85
2022-08-04T11:11:27.106Z,2.50
2022-08-04T11:13:57.925Z,2.50
2022-08-04T11:16:46.065Z,2.90
2022-08-04T11:20:33.078Z,2.50
2022-08-04T11:23:19.038Z,2.60
2022-08-04T11:26:12.968Z,2.65
2022-08-04T11:29:16.078Z,3.17
2022-08-04T11:31:51.851Z,2.70
2022-08-04T11:34:31.341Z,2.58
2022-08-04T11:37:01.968Z,2.50
2022-08-04T11:39:55.352Z,2.55
2022-08-04T11:42:38.918Z,2.38
2022-08-04T11:45:27.291Z,2.47
2022-08-04T11:48:32.714Z,2.40
2022-08-04T11:51:12.375Z,2.40
2022-08-04T11:53:42.338Z,2.60
2022-08-04T11:56:35.968Z,2.28
2022-08-04T11:59:09.943Z,2.45
2022-08-04T12:02:21.607Z,2.70
2022-08-04T12:05:04.984Z,2.30
2022-08-04T12:08:05.523Z,2.40
2022-08-04T12:11:02.228Z,2.90
2022-08-04T12:14:07.415Z,2.38
2022-08-04T12:16:50.870Z,2.38
2022-08-04T12:20:04.133Z,2.30
2022-08-04T12:22:42.577Z,2.60
2022-08-04T12:25:24.482Z,2.50
2022-08-04T12:28:12.310Z,2.50
2022-08-04T12:31:02.086Z,2.30
2022-08-04T12:34:05.323Z,2.58
2022-08-04T12:36:44.503Z,2.22
2022-08-04T12:39:19.852Z,2.53
2022-08-04T12:42:21.642Z,2.92
2022-08-04T12:44:54.453Z,2.38
2022-08-04T12:47:34.363Z,2.40
2022-08-04T12:50:04.910Z,2.33
2022-08-04T12:53:06.910Z,2.70
2022-08-04T12:55:37.344Z,2.40
2022-08-04T12:58:42.591Z,2.70
2022-08-04T13:02:08.868Z,2.50
2022-08-04T13:04:31.172Z,2.40
2022-08-04T13:07:06.955Z,2.35
2022-08-04T13:09:44.449Z,2.47
2022-08-04T13:12:18.107Z,2.40
2022-08-04T13:14:56.132Z,2.58
2022-08-04T13:18:00.254Z,2.53
2022-08-04T13:20:47.288Z,2.40
2022-08-04T13:23:21.825Z,2.30
2022-08-04T13:26:45.196Z,2.20
2022-08-04T13:28:52.778Z,2.40
2022-08-04T13:31:35.899Z,2.40
2022-08-04T13:34:18.774Z,2.08
2022-08-04T13:37:01.250Z,2.13
2022-08-04T13:39:30.896Z,2.40
2022-08-04T13:42:10.214Z,2.70
2022-08-04T13:44:41.471Z,2.70
2022-08-04T13:47:34.362Z,2.72
2022-08-04T13:50:21.781Z,2.42
2022-08-04T13:53:00.274Z,2.35
2022-08-04T13:55:38.680Z,2.70
2022-08-04T13:58:29.289Z,2.40
2022-08-04T14:01:13.771Z,2.90
2022-08-04T14:04:00.364Z,2.55
2022-08-04T14:06:44.426Z,2.25
2022-08-04T14:09:35.568Z,2.58
2022-08-04T14:12:39.039Z,2.33
2022-08-04T14:16:02.540Z,2.67
2022-08-04T14:18:38.657Z,2.47
2022-08-04T14:21:25.348Z,2.45
2022-08-04T14:23:56.504Z,2.33
2022-08-04T14:26:43.327Z,2.35
2022-08-04T14:29:26.597Z,2.47
2022-08-04T14:32:12.669Z,2.60
2022-08-04T14:34:45.871Z,2.78
2022-08-04T14:37:24.319Z,2.10
2022-08-04T14:40:18.235Z,2.30
2022-08-04T14:42:57.228Z,2.65
2022-08-04T14:45:33.186Z,2.50
2022-08-04T14:48:16.732Z,2.45
2022-08-04T14:50:49.930Z,2.55
2022-08-04T14:53:28.218Z,2.47
2022-08-04T14:55:58.995Z,2.22
2022-08-04T14:58:39.799Z,2.28
2022-08-04T15:01:13.019Z,2.72
2022-08-04T15:03:53.044Z,2.25
2022-08-04T15:06:26.379Z,2.65
2022-08-04T15:09:03.236Z,2.85
2022-08-04T15:11:31.348Z,2.67
2022-08-04T15:14:00.490Z,2.42
2022-08-04T15:16:39.209Z,2.30
2022-08-04T15:19:29.340Z,2.70
2022-08-04T15:22:26.561Z,2.47
2022-08-04T15:24:55.458Z,2.50
2022-08-04T15:27:36.251Z,2.72
2022-08-04T15:30:06.924Z,2.38
2022-08-04T15:32:47.315Z,2.30
2022-08-04T15:35:34.917Z,2.70
2022-08-04T15:38:42.204Z,2.30
2022-08-04T15:41:19.361Z,2.42
2022-08-04T15:44:34.257Z,2.20
2022-08-04T15:47:12.695Z,2.13
2022-08-04T15:49:49.164Z,2.40
2022-08-04T15:52:18.199Z,2.58
2022-08-04T15:54:52.788Z,2.50
2022-08-04T15:58:06.244Z,2.22
2022-08-04T16:00:55.430Z,2.65
2022-08-04T16:03:58.743Z,2.35
2022-08-04T16:06:29.655Z,2.40
2022-08-04T16:09:09.248Z,2.58
2022-08-04T16:11:40.566Z,2.40
2022-08-04T16:14:19.380Z,2.35
2022-08-04T16:16:51.987Z,2.40
2022-08-04T16:19:58.291Z,2.25
2022-08-04T16:22:40.955Z,2.47
2022-08-04T16:25:17.340Z,2.55
2022-08-04T16:27:46.226Z,2.20
2022-08-04T16:30:15.205Z,2.78
2022-08-04T16:32:55.411Z,2.50
2022-08-04T16:35:28.811Z,2.30
2022-08-04T16:38:23.212Z,2.50
2022-08-04T16:40:58.924Z,2.35
2022-08-04T16:43:41.192Z,2.25
2022-08-04T16:46:15.925Z,2.28
2022-08-04T16:49:13.451Z,2.10
2022-08-04T16:51:41.070Z,1.92
2022-08-04T16:54:09.297Z,2.10
2022-08-04T16:56:44.322Z,1.98
2022-08-04T16:59:13.741Z,2.30
2022-08-04T17:02:00.406Z,2.10
2022-08-04T17:04:34.761Z,2.17
2022-08-04T17:07:11.265Z,2.10
2022-08-04T17:09:50.445Z,2.10
2022-08-04T17:12:25.376Z,2.08
2022-08-04T17:14:53.031Z,2.05
2022-08-04T17:17:24.000Z,1.80
2022-08-04T17:20:03.204Z,2.10
2022-08-04T17:22:30.802Z,1.67
2022-08-04T17:25:00.559Z,1.70
2022-08-04T17:28:08.930Z,2.00
2022-08-04T17:30:27.857Z,2.00
2022-08-04T17:33:02.311Z,1.80
2022-08-04T17:35:38.823Z,1.98
2022-08-04T17:38:13.280Z,1.52
2022-08-04T17:41:24.291Z,1.80
2022-08-04T17:44:08.247Z,1.50
2022-08-04T17:46:48.302Z,1.80
2022-08-04T17:49:25.271Z,1.55
2022-08-04T17:52:06.693Z,1.70
2022-08-04T17:54:47.246Z,1.60
2022-08-04T17:57:21.252Z,1.65
2022-08-04T18:00:03.374Z,2.00
2022-08-04T18:02:35.097Z,1.77
2022-08-04T18:05:14.556Z,1.85
2022-08-04T18:08:39.660Z,1.70
2022-08-04T18:10:55.401Z,1.73
2022-08-04T18:13:28.581Z,1.90
2022-08-04T18:16:22.343Z,1.77
2022-08-04T18:19:26.247Z,1.80
2022-08-04T18:22:09.058Z,1.70
2022-08-04T18:24:56.155Z,1.33
2022-08-04T18:27:35.337Z,1.75
2022-08-04T18:30:33.618Z,1.60
2022-08-04T18:33:24.165Z,1.70
2022-08-04T18:36:34.012Z,1.80
2022-08-04T18:38:54.519Z,1.70
2022-08-04T18:41:27.225Z,1.80
2022-08-04T18:44:03.470Z,1.50
2022-08-04T18:46:31.138Z,1.40
2022-08-04T18:48:58.747Z,1.60
2022-08-04T18:51:34.392Z,1.63
2022-08-04T18:54:13.349Z,1.50
2022-08-04T18:57:08.618Z,1.70
2022-08-04T18:59:34.860Z,2.13
2022-08-04T19:02:16.809Z,1.77
2022-08-04T19:04:45.338Z,1.67
2022-08-04T19:07:30.265Z,1.75
2022-08-04T19:10:26.539Z,1.63
2022-08-04T19:13:01.344Z,1.50
2022-08-04T19:15:34.003Z,1.70
2022-08-04T19:18:10.485Z,1.48
2022-08-04T19:20:58.314Z,1.75
2022-08-04T19:24:28.299Z,2.10
2022-08-04T19:26:28.596Z,1.85
2022-08-04T19:29:03.288Z,1.35
2022-08-04T19:31:34.355Z,1.70
2022-08-04T19:34:32.968Z,1.60
2022-08-04T19:37:03.010Z,2.00
2022-08-04T19:39:40.394Z,1.60
2022-08-04T19:42:08.765Z,1.70
2022-08-04T19:44:46.342Z,1.70
2022-08-04T19:48:12.257Z,1.50
2022-08-04T19:50:14.191Z,1.63
2022-08-04T19:55:38.331Z,1.50
2022-08-04T19:58:08.589Z,1.58
2022-08-04T20:00:44.756Z,1.55
2022-08-04T20:03:20.299Z,1.40
2022-08-04T20:05:56.328Z,1.50
2022-08-04T20:08:28.200Z,1.50
2022-08-04T20:11:03.344Z,1.58
2022-08-04T20:13:38.685Z,1.50
2022-08-04T20:16:29.947Z,1.45
2022-08-04T20:19:18.321Z,1.50
2022-08-04T20:21:55.425Z,1.40
2022-08-04T20:24:36.800Z,1.60
2022-08-04T20:27:17.388Z,1.63
2022-08-04T20:29:50.379Z,1.65
2022-08-04T20:32:26.319Z,1.60
2022-08-04T20:34:55.755Z,1.38
2022-08-04T20:37:25.231Z,1.20
2022-08-04T20:40:04.323Z,1.40
2022-08-04T20:42:33.692Z,1.10
2022-08-04T20:45:02.266Z,1.42
2022-08-04T20:47:39.509Z,1.27
2022-08-04T20:50:09.787Z,1.48
2022-08-04T20:52:37.821Z,1.30
2022-08-04T20:55:13.307Z,1.30
2022-08-04T20:57:49.292Z,1.50
2022-08-04T21:00:26.515Z,1.45
2022-08-04T21:03:01.433Z,1.40
2022-08-04T21:05:36.350Z,1.40
2022-08-04T21:08:04.735Z,1.40
2022-08-04T21:10:32.393Z,1.40
2022-08-04T21:13:06.327Z,1.40
2022-08-04T21:15:59.226Z,1.33
2022-08-04T21:18:30.359Z,1.35
2022-08-04T21:21:05.474Z,1.60
2022-08-04T21:23:41.551Z,1.48
2022-08-04T21:26:10.841Z,1.50
2022-08-04T21:28:38.650Z,1.58
2022-08-04T21:31:21.958Z,1.70
2022-08-04T21:33:52.018Z,1.35
2022-08-04T21:36:27.406Z,1.52
2022-08-04T21:38:55.516Z,1.67
2022-08-04T21:41:24.702Z,1.40
2022-08-04T21:44:02.355Z,1.45
2022-08-04T21:46:31.839Z,1.52
2022-08-04T21:48:59.796Z,1.50
2022-08-04T21:51:59.735Z,1.48
2022-08-04T21:54:26.998Z,1.30
2022-08-04T21:57:03.447Z,1.33
2022-08-04T21:59:31.523Z,1.50
2022-08-04T22:02:09.414Z,1.48
2022-08-04T22:04:37.653Z,1.70
2022-08-04T22:07:05.215Z,1.90
2022-08-04T22:09:41.627Z,1.55
2022-08-04T22:12:23.815Z,1.55
2022-08-04T22:17:47.710Z,1.70
2022-08-04T22:20:28.465Z,1.67
2022-08-04T22:23:03.409Z,1.45
2022-08-04T22:25:40.614Z,1.85
2022-08-04T22:28:12.634Z,1.73
2022-08-04T22:30:54.407Z,1.70
2022-08-04T22:33:23.173Z,1.60
2022-08-04T22:35:50.743Z,1.65
2022-08-04T22:38:48.651Z,1.60
2022-08-04T22:41:16.717Z,1.70
2022-08-04T22:43:54.780Z,1.73
2022-08-04T22:46:27.910Z,1.88
2022-08-04T22:49:02.332Z,1.80
2022-08-04T22:51:30.512Z,1.83
2022-08-04T22:54:00.321Z,1.73
2022-08-04T22:56:38.196Z,1.85
2022-08-04T22:59:09.940Z,1.90
2022-08-04T23:01:59.198Z,1.90
2022-08-04T23:04:30.924Z,2.13
2022-08-04T23:07:09.083Z,2.15
2022-08-04T23:09:49.457Z,2.05
2022-08-04T23:12:27.510Z,2.13
2022-08-04T23:14:59.021Z,1.98
2022-08-04T23:17:44.114Z,2.20
2022-08-04T23:20:23.567Z,1.77
2022-08-04T23:23:12.321Z,1.60
2022-08-04T23:26:08.410Z,2.00
2022-08-04T23:28:39.348Z,2.00
2022-08-04T23:31:10.282Z,1.80
2022-08-04T23:33:49.258Z,1.65
2022-08-04T23:36:30.743Z,2.20
2022-08-04T23:39:04.199Z,1.80
2022-08-04T23:41:54.419Z,1.98
2022-08-04T23:44:27.033Z,1.92
2022-08-04T23:47:06.374Z,1.90
2022-08-04T23:49:43.248Z,2.00
2022-08-04T23:52:30.269Z,2.00
2022-08-04T23:54:59.402Z,1.80
2022-08-04T23:58:05.217Z,1.85
